Terminal Aerodrome Forecast
Issued by NWS Sterling, VA

Current Version | Previous Version | Graphics & Text | Print | Product List | Glossary On
Versions: 1 2 3 4 5 6 7 8 9 10 11 12
000
FTUS41 KLWX 251140
TAFMRB
TAF
KMRB 251140Z 2512/2612 17005KT P6SM BKN040
     FM251600 18014G22KT P6SM -SHRA BKN070
     FM251700 23013G20KT 5SM -SHRA VCTS OVC040CB
     FM251900 27016G27KT P6SM OVC050
     FM260000 29018G34KT P6SM SCT250
     FM260200 29017G29KT P6SM SCT040
     FM260600 29013G22KT P6SM BKN040=

USA.gov is the U.S. government's official web portal to all federal, state and local government web resources and services.